RJBM(METAR)
08/15 04:00
METAR RJBM 141900Z 15002KT 9999 NSC 27/25 Q1008 RMK A2977=
戻る
トップページへ戻る
IMOC Co,.Ltd.